Time;durP1;ratioP1;P1;durP2;ratioP2;P2;SDS_P1;SDS_P2;PMS_P1;PMS_P2;Temp;Humidity;BMP_temperature;BMP_pressure;BME280_temperature;BME280_humidity;BME280_pressure;Samples;Min_cycle;Max_cycle;Signal;HPM_P1;HPM_P2
2022/11/15 00:00:17;;;;;;;37.80;18.27;;;8.60;96.90;;;;;;5055108;28;20033;-78
2022/11/15 00:02:43;;;;;;;40.43;19.27;;;8.60;97.10;;;;;;5020688;28;20033;-78
2022/11/15 00:05:09;;;;;;;37.23;18.37;;;8.60;97.10;;;;;;5054771;28;20100;-78
2022/11/15 00:07:34;;;;;;;33.37;17.53;;;8.70;97.30;;;;;;5020797;28;20033;-78
2022/11/15 00:10:00;;;;;;;33.20;17.13;;;8.70;97.30;;;;;;5020884;28;20025;-78
2022/11/15 00:12:27;;;;;;;38.37;18.80;;;8.70;97.30;;;;;;5037422;28;20184;-78
2022/11/15 00:14:53;;;;;;;35.07;17.43;;;8.70;97.30;;;;;;5055200;28;20028;-78
2022/11/15 00:17:19;;;;;;;30.50;16.73;;;8.70;97.50;;;;;;5020950;28;20484;-78
2022/11/15 00:19:44;;;;;;;33.13;17.13;;;8.70;97.60;;;;;;5053439;28;20139;-78
2022/11/15 00:22:10;;;;;;;37.37;17.13;;;8.70;97.60;;;;;;5036683;28;20025;-78
2022/11/15 00:24:36;;;;;;;34.73;18.83;;;8.70;97.70;;;;;;5020616;28;20032;-78
2022/11/15 00:27:01;;;;;;;33.77;17.83;;;8.70;97.90;;;;;;5020438;28;20040;-78
2022/11/15 00:29:27;;;;;;;34.73;17.03;;;8.80;98.00;;;;;;5036496;28;20385;-78
2022/11/15 00:31:52;;;;;;;32.37;16.73;;;8.80;97.90;;;;;;5036671;28;20037;-78
2022/11/15 00:34:18;;;;;;;31.57;17.97;;;8.70;98.00;;;;;;5053219;28;20108;-78
2022/11/15 00:36:44;;;;;;;45.50;18.70;;;8.80;98.00;;;;;;5019913;28;20099;-77
2022/11/15 00:39:09;;;;;;;34.50;17.27;;;8.80;98.10;;;;;;5003803;28;20408;-78
2022/11/15 00:41:35;;;;;;;31.53;16.70;;;8.90;98.20;;;;;;5036698;28;20029;-79
2022/11/15 00:44:01;;;;;;;35.77;16.50;;;8.90;98.20;;;;;;5036310;28;20060;-78
2022/11/15 00:46:26;;;;;;;35.70;17.47;;;9.00;98.30;;;;;;5054358;28;20457;-78
2022/11/15 00:48:52;;;;;;;34.60;17.67;;;8.90;98.30;;;;;;5053379;28;20037;-77
2022/11/15 00:51:18;;;;;;;34.97;18.17;;;8.90;98.30;;;;;;5052974;28;20029;-77
2022/11/15 00:53:43;;;;;;;35.70;16.80;;;8.90;98.40;;;;;;5053914;28;20095;-78
2022/11/15 00:56:09;;;;;;;26.17;15.37;;;9.00;98.50;;;;;;5036105;28;20029;-79
2022/11/15 00:58:34;;;;;;;31.13;17.53;;;9.00;98.50;;;;;;5037033;28;20033;-79
2022/11/15 01:01:11;;;;;;;27.97;16.53;;;9.00;98.50;;;;;;5035983;28;20024;-79
2022/11/15 01:03:38;;;;;;;32.80;17.77;;;9.00;98.60;;;;;;5053699;28;20052;-78
2022/11/15 01:06:05;;;;;;;29.27;16.60;;;9.00;99.00;;;;;;5052559;28;20029;-78
2022/11/15 01:08:30;;;;;;;31.20;16.37;;;9.00;98.70;;;;;;5035672;28;20025;-78
2022/11/15 01:11:01;;;;;;;29.80;16.83;;;9.00;98.80;;;;;;5053705;28;20026;-78
2022/11/15 01:13:31;;;;;;;27.23;16.13;;;9.00;98.90;;;;;;5036032;28;20025;-78
2022/11/15 01:15:56;;;;;;;24.70;14.77;;;9.00;98.80;;;;;;5053813;28;20029;-78
2022/11/15 01:18:22;;;;;;;28.63;16.33;;;9.10;98.90;;;;;;5019391;28;20059;-78
2022/11/15 01:20:47;;;;;;;28.37;15.73;;;9.00;98.90;;;;;;5052354;28;20028;-78
2022/11/15 01:23:14;;;;;;;27.23;16.80;;;9.00;99.00;;;;;;5035868;28;20552;-78
2022/11/15 01:25:39;;;;;;;29.90;16.77;;;9.00;99.00;;;;;;5053470;28;20033;-78
2022/11/15 01:28:05;;;;;;;28.57;16.37;;;9.10;99.10;;;;;;5035542;28;20333;-78
2022/11/15 01:30:30;;;;;;;27.13;14.87;;;9.10;99.20;;;;;;5053389;28;20021;-78
2022/11/15 01:32:56;;;;;;;30.83;16.37;;;9.20;99.30;;;;;;5053891;28;20025;-78
2022/11/15 01:35:22;;;;;;;27.37;16.10;;;9.20;99.40;;;;;;5036211;28;20025;-78
2022/11/15 01:37:47;;;;;;;35.47;16.60;;;9.30;99.50;;;;;;5053133;28;20064;-78
2022/11/15 01:40:14;;;;;;;26.03;16.20;;;9.20;99.50;;;;;;5052055;28;20033;-79
2022/11/15 01:42:40;;;;;;;25.07;16.17;;;9.20;99.50;;;;;;5035467;28;20029;-78
2022/11/15 01:45:06;;;;;;;32.73;17.40;;;9.20;99.60;;;;;;5035278;28;20025;-78
2022/11/15 01:47:37;;;;;;;27.30;15.80;;;9.30;99.60;;;;;;5053137;28;20040;-78
2022/11/15 01:50:08;;;;;;;32.97;16.03;;;9.30;99.70;;;;;;5051878;28;20025;-78
2022/11/15 01:52:35;;;;;;;28.27;16.67;;;9.30;99.70;;;;;;5053144;28;20033;-78
2022/11/15 01:55:10;;;;;;;25.47;15.83;;;9.30;99.80;;;;;;5019240;28;20021;-78
2022/11/15 01:57:36;;;;;;;27.43;16.23;;;9.40;99.90;;;;;;5052209;28;20017;-78
2022/11/15 02:00:03;;;;;;;29.13;16.17;;;9.40;99.90;;;;;;5051937;28;20032;-79
2022/11/15 02:02:28;;;;;;;27.50;15.13;;;9.40;99.90;;;;;;5052919;28;20473;-78
2022/11/15 02:04:54;;;;;;;27.27;16.03;;;9.40;99.90;;;;;;5035425;28;20059;-78
2022/11/15 02:07:22;;;;;;;26.70;15.87;;;9.50;99.90;;;;;;5053270;28;20112;-78
2022/11/15 02:09:49;;;;;;;23.83;14.83;;;9.50;99.90;;;;;;5035067;28;20029;-78
2022/11/15 02:12:18;;;;;;;24.60;14.43;;;9.50;99.90;;;;;;5051649;28;20033;-78
2022/11/15 02:14:51;;;;;;;25.73;15.80;;;9.50;99.90;;;;;;5053073;28;20017;-78
2022/11/15 02:17:26;;;;;;;24.00;15.93;;;9.60;99.90;;;;;;5051924;28;20025;-78
2022/11/15 02:20:20;;;;;;;25.87;15.67;;;9.60;99.90;;;;;;5052800;28;20048;-78
2022/11/15 02:23:15;;;;;;;20.90;13.93;;;9.70;99.90;;;;;;5052622;28;20035;-78
2022/11/15 02:25:59;;;;;;;24.40;13.48;;;9.70;99.90;;;;;;5035663;28;20027;-78
2022/11/15 02:28:27;;;;;;;;;;;9.70;99.90;;;;;;5052530;28;20061;-78
2022/11/15 02:31:05;;;;;;;19.80;12.67;;;9.70;99.90;;;;;;5053299;28;20272;-78
2022/11/15 02:33:49;;;;;;;19.80;12.33;;;9.70;99.90;;;;;;5052640;28;20029;-78
2022/11/15 02:36:35;;;;;;;21.52;13.52;;;9.80;99.90;;;;;;5052917;28;20070;-80
2022/11/15 02:39:32;;;;;;;21.67;13.50;;;9.80;99.90;;;;;;5035106;28;20381;-77
2022/11/15 02:42:03;;;;;;;19.63;13.43;;;9.90;99.90;;;;;;5051767;28;20029;-79
2022/11/15 02:44:45;;;;;;;21.17;13.63;;;10.00;99.90;;;;;;5051801;28;20071;-79
2022/11/15 02:47:15;;;;;;;20.17;13.17;;;9.90;99.90;;;;;;5035278;28;20017;-80
2022/11/15 02:50:04;;;;;;;22.20;13.57;;;10.00;99.90;;;;;;5052962;28;20078;-79
2022/11/15 02:52:30;;;;;;;26.10;14.13;;;10.00;99.90;;;;;;5052691;28;20021;-78
2022/11/15 02:54:58;;;;;;;23.73;14.33;;;10.20;99.90;;;;;;5037390;28;20485;-80
2022/11/15 02:58:05;;;;;;;21.80;13.30;;;10.10;99.90;;;;;;5056230;28;20025;-77
2022/11/15 03:01:00;;;;;;;21.20;13.53;;;10.10;99.90;;;;;;5055595;28;20032;-77
2022/11/15 03:03:29;;;;;;;;;;;10.20;99.90;;;;;;5008736;28;20041;-78
2022/11/15 03:06:49;;;;;;;21.10;13.80;;;10.20;99.90;;;;;;5038446;28;19940;-78
2022/11/15 03:09:37;;;;;;;20.27;13.43;;;10.30;99.90;;;;;;5048643;28;20033;-77
2022/11/15 03:12:10;;;;;;;21.90;13.63;;;10.30;99.90;;;;;;5056033;28;20047;-78
2022/11/15 03:15:01;;;;;;;21.13;14.40;;;10.20;99.90;;;;;;5055687;28;20032;-77
2022/11/15 03:17:36;;;;;;;18.83;13.53;;;10.30;99.90;;;;;;5037799;28;20017;-78
2022/11/15 03:20:05;;;;;;;19.70;13.93;;;10.30;99.90;;;;;;5055864;28;20025;-78
2022/11/15 03:22:36;;;;;;;19.40;13.90;;;10.40;99.90;;;;;;5056097;28;20107;-77
2022/11/15 03:25:06;;;;;;;22.80;14.40;;;10.50;99.90;;;;;;5055935;28;20106;-77
2022/11/15 03:27:38;;;;;;;23.23;14.63;;;10.40;99.90;;;;;;5056077;28;20023;-77
2022/11/15 03:30:07;;;;;;;26.27;14.90;;;10.50;99.90;;;;;;5037928;28;20048;-78
2022/11/15 03:32:40;;;;;;;22.63;14.60;;;10.50;99.90;;;;;;5037499;28;20060;-78
2022/11/15 03:35:26;;;;;;;23.80;15.43;;;10.50;99.90;;;;;;5055764;28;20405;-78
2022/11/15 03:38:08;;;;;;;22.00;14.90;;;10.50;99.90;;;;;;5036576;28;20032;-78
2022/11/15 03:40:41;;;;;;;24.60;14.90;;;10.50;99.90;;;;;;5055566;28;20048;-78
2022/11/15 03:43:23;;;;;;;22.13;14.07;;;10.60;99.90;;;;;;5055128;28;20105;-79
2022/11/15 03:46:31;;;;;;;19.70;14.13;;;10.60;99.90;;;;;;5055109;28;20064;-78
2022/11/15 03:49:11;;;;;;;22.90;13.87;;;10.60;99.90;;;;;;5035438;28;20072;-79
2022/11/15 03:51:37;;;;;;;22.63;15.77;;;10.60;99.90;;;;;;5055598;28;20017;-78
2022/11/15 03:54:04;;;;;;;25.10;15.50;;;10.70;99.90;;;;;;5037359;28;20031;-78
2022/11/15 03:56:29;;;;;;;22.63;15.33;;;10.70;99.90;;;;;;5020529;28;20025;-79
2022/11/15 03:58:55;;;;;;;26.17;16.67;;;10.70;99.90;;;;;;5055189;28;20083;-77
2022/11/15 04:01:21;;;;;;;24.93;16.13;;;10.80;99.90;;;;;;5055374;28;20029;-78
2022/11/15 04:03:46;;;;;;;25.13;15.70;;;10.80;99.90;;;;;;5053601;28;20025;-77
2022/11/15 04:06:12;;;;;;;28.60;16.63;;;10.80;99.90;;;;;;5020136;28;20385;-78
2022/11/15 04:08:37;;;;;;;23.73;15.57;;;10.80;99.90;;;;;;5020100;28;20072;-78
2022/11/15 04:11:03;;;;;;;28.87;17.73;;;10.80;99.90;;;;;;5020293;28;20159;-78
2022/11/15 04:13:29;;;;;;;24.60;15.27;;;10.90;99.90;;;;;;5020152;28;20025;-76
2022/11/15 04:15:54;;;;;;;24.13;15.70;;;10.90;99.90;;;;;;5054832;28;20029;-78
2022/11/15 04:18:20;;;;;;;21.57;14.97;;;10.90;99.90;;;;;;5036820;28;20057;-78
2022/11/15 04:26:22;;;;;;;29.20;16.60;;;10.90;99.90;;;;;;5026141;28;20047;-77
2022/11/15 04:31:32;;;;;;;24.10;16.10;;;11.00;99.90;;;;;;5039542;28;20060;-78
2022/11/15 04:33:58;;;;;;;25.27;17.10;;;11.00;99.90;;;;;;5052889;28;20493;-78
2022/11/15 04:39:08;;;;;;;26.08;15.85;;;11.10;99.90;;;;;;5054504;28;20554;-79
2022/11/15 04:41:34;;;;;;;22.07;15.17;;;11.10;99.90;;;;;;5054629;28;20033;-78
2022/11/15 04:44:00;;;;;;;22.13;16.00;;;11.20;99.90;;;;;;5036508;28;20029;-79
2022/11/15 04:46:26;;;;;;;26.63;14.53;;;11.10;99.90;;;;;;5036391;28;20031;-79
2022/11/15 04:48:52;;;;;;;22.53;16.03;;;11.10;99.90;;;;;;5052963;28;20036;-78
2022/11/15 04:51:18;;;;;;;26.05;17.10;;;11.10;99.90;;;;;;5036287;28;20428;-78
2022/11/15 04:53:44;;;;;;;28.07;17.37;;;11.20;99.90;;;;;;5054072;28;20050;-78
2022/11/15 04:56:09;;;;;;;25.45;18.35;;;11.20;99.90;;;;;;5036559;28;20025;-78
2022/11/15 04:58:35;;;;;;;24.13;17.57;;;11.20;99.90;;;;;;5036722;28;20025;-78
2022/11/15 05:01:11;;;;;;;28.25;19.17;;;11.20;99.90;;;;;;5053793;28;20354;-79
2022/11/15 05:06:22;;;;;;;27.08;17.73;;;11.20;99.90;;;;;;5054368;28;20044;-78
2022/11/15 05:08:47;;;;;;;27.30;17.83;;;11.30;99.90;;;;;;5053805;28;20025;-78
2022/11/15 05:11:13;;;;;;;27.48;18.55;;;11.30;99.90;;;;;;5035834;28;20385;-79
2022/11/15 05:13:38;;;;;;;28.02;16.92;;;11.30;99.90;;;;;;5003152;28;20037;-77
2022/11/15 05:16:04;;;;;;;27.80;17.52;;;11.30;99.90;;;;;;5019099;28;20025;-78
2022/11/15 05:18:30;;;;;;;29.70;17.53;;;11.30;99.90;;;;;;5035649;28;20112;-78
2022/11/15 05:20:55;;;;;;;27.67;18.63;;;11.40;99.90;;;;;;5054112;28;20031;-79
2022/11/15 05:23:21;;;;;;;31.73;18.50;;;11.40;99.90;;;;;;5035999;28;20037;-77
2022/11/15 05:25:47;;;;;;;28.90;17.25;;;11.40;99.90;;;;;;5052873;28;20024;-77
2022/11/15 05:28:13;;;;;;;25.27;16.75;;;11.40;99.90;;;;;;5035636;28;20362;-77
2022/11/15 05:30:38;;;;;;;32.10;20.03;;;11.40;99.90;;;;;;5052227;28;20020;-78
2022/11/15 05:33:04;;;;;;;29.00;17.77;;;11.40;99.90;;;;;;5048342;28;20477;-79
2022/11/15 05:35:35;;;;;;;28.58;17.58;;;11.40;99.90;;;;;;5024384;28;20026;-78
2022/11/15 05:38:01;;;;;;;28.30;17.38;;;11.50;99.90;;;;;;5031879;28;20386;-78
2022/11/15 05:40:28;;;;;;;27.48;17.33;;;11.40;99.90;;;;;;5030310;28;20041;-78
2022/11/15 05:42:54;;;;;;;30.65;18.50;;;11.50;99.90;;;;;;5030439;28;20033;-78
2022/11/15 05:45:20;;;;;;;25.30;17.30;;;11.50;99.90;;;;;;5016027;28;20518;-77
2022/11/15 05:47:46;;;;;;;29.70;18.70;;;11.50;99.90;;;;;;5033435;28;20037;-77
2022/11/15 05:50:15;;;;;;;28.05;18.40;;;11.50;99.90;;;;;;5016063;28;20340;-78
2022/11/15 05:52:41;;;;;;;28.10;17.80;;;11.50;99.90;;;;;;5015952;28;20021;-80
2022/11/15 05:55:08;;;;;;;28.20;17.95;;;11.60;99.90;;;;;;4999235;28;20021;-79
2022/11/15 05:57:34;;;;;;;27.45;17.13;;;11.60;99.90;;;;;;5033326;28;20025;-79
2022/11/15 05:59:59;;;;;;;28.30;19.08;;;11.60;99.90;;;;;;5016017;28;20057;-78
2022/11/15 06:02:25;;;;;;;26.48;16.75;;;11.60;99.90;;;;;;4999215;28;20033;-79
2022/11/15 06:04:51;;;;;;;29.15;18.77;;;11.50;99.90;;;;;;4999235;28;20473;-78
2022/11/15 06:07:16;;;;;;;25.40;17.23;;;11.60;99.90;;;;;;4999190;28;20025;-80
2022/11/15 06:09:42;;;;;;;27.90;17.45;;;11.60;99.90;;;;;;5015539;28;20026;-79
2022/11/15 06:12:07;;;;;;;28.65;18.45;;;11.60;99.90;;;;;;5015376;28;20030;-79
2022/11/15 06:14:33;;;;;;;29.15;17.70;;;11.60;99.90;;;;;;5015733;28;20116;-78
2022/11/15 06:16:59;;;;;;;25.08;16.27;;;11.60;99.90;;;;;;5031986;28;20032;-78
2022/11/15 06:19:32;;;;;;;31.88;18.60;;;11.50;99.90;;;;;;5015700;28;20038;-80
2022/11/15 06:22:01;;;;;;;23.73;16.77;;;11.60;99.90;;;;;;5032834;28;20474;-80
2022/11/15 06:24:27;;;;;;;25.05;17.05;;;11.60;99.90;;;;;;5013173;28;20028;-80
2022/11/15 06:26:53;;;;;;;26.73;16.33;;;11.60;99.90;;;;;;5072806;28;20586;-79
2022/11/15 06:29:19;;;;;;;25.65;16.02;;;11.60;99.90;;;;;;5043704;28;20037;-79
2022/11/15 06:31:44;;;;;;;26.42;16.17;;;11.70;99.90;;;;;;5038930;28;20393;-79
2022/11/15 06:34:10;;;;;;;21.33;15.48;;;11.70;99.90;;;;;;5039924;28;20037;-80
2022/11/15 06:36:36;;;;;;;25.95;15.95;;;11.70;99.90;;;;;;5034778;28;20038;-80
2022/11/15 06:39:03;;;;;;;22.52;14.82;;;11.60;99.90;;;;;;5058116;28;20028;-80
2022/11/15 06:41:29;;;;;;;22.88;14.27;;;11.70;99.90;;;;;;5058347;28;20028;-80
2022/11/15 06:43:56;;;;;;;20.77;14.70;;;11.70;99.90;;;;;;5058576;28;20557;-80
2022/11/15 06:46:21;;;;;;;20.25;13.77;;;11.70;99.90;;;;;;5042273;28;20483;-80
2022/11/15 06:48:49;;;;;;;22.05;14.30;;;11.80;99.90;;;;;;5058495;28;20067;-80
2022/11/15 06:51:14;;;;;;;21.83;13.95;;;11.70;99.90;;;;;;5041928;28;20020;-80
2022/11/15 06:53:40;;;;;;;22.58;14.70;;;11.80;99.90;;;;;;5075328;28;20020;-80
2022/11/15 06:56:07;;;;;;;23.40;14.82;;;11.80;99.90;;;;;;5070184;28;20059;-81
2022/11/15 06:58:33;;;;;;;21.17;14.25;;;11.80;99.90;;;;;;5038184;28;20119;-81
2022/11/15 07:01:01;;;;;;;23.35;13.52;;;11.80;99.90;;;;;;5038434;28;20032;-80
2022/11/15 07:03:27;;;;;;;23.00;13.45;;;11.80;99.90;;;;;;5056103;28;20523;-80
2022/11/15 07:05:56;;;;;;;21.48;13.88;;;11.80;99.90;;;;;;5055862;28;20029;-81
2022/11/15 07:08:23;;;;;;;22.45;13.57;;;11.80;99.90;;;;;;5038154;28;20033;-81
2022/11/15 07:10:50;;;;;;;23.98;13.63;;;11.90;99.90;;;;;;5055994;28;20036;-81
2022/11/15 07:13:15;;;;;;;21.13;13.25;;;11.90;99.90;;;;;;5054313;28;20021;-81
2022/11/15 07:15:41;;;;;;;23.33;15.40;;;12.00;99.90;;;;;;5037549;28;20032;-81
2022/11/15 07:18:07;;;;;;;18.63;13.98;;;11.90;99.90;;;;;;5055475;28;20032;-81
2022/11/15 07:20:32;;;;;;;20.13;13.30;;;11.90;99.90;;;;;;5043487;28;20086;-81
2022/11/15 07:23:02;;;;;;;17.45;12.57;;;11.90;99.90;;;;;;5040813;28;20028;-77
2022/11/15 07:25:28;;;;;;;19.67;13.10;;;11.90;99.90;;;;;;5075457;28;20356;-78
2022/11/15 07:27:56;;;;;;;22.95;15.00;;;11.80;99.90;;;;;;5040979;28;20449;-79
2022/11/15 07:30:21;;;;;;;22.25;14.52;;;11.90;99.90;;;;;;5075340;28;20024;-78
2022/11/15 07:32:47;;;;;;;23.88;14.00;;;11.90;99.90;;;;;;5057449;28;20805;-78
2022/11/15 07:35:13;;;;;;;19.00;13.38;;;11.80;99.90;;;;;;5057292;28;20539;-78
2022/11/15 07:37:38;;;;;;;18.65;12.82;;;11.80;99.90;;;;;;5057005;28;20132;-78
2022/11/15 07:40:04;;;;;;;19.52;13.68;;;11.80;99.90;;;;;;5023403;28;20104;-78
2022/11/15 07:45:17;;;;;;;20.67;14.13;;;11.80;99.90;;;;;;5060318;28;20086;-78
2022/11/15 07:47:46;;;;;;;22.02;14.48;;;11.80;99.90;;;;;;5024699;28;20024;-78
2022/11/15 07:50:11;;;;;;;22.52;14.35;;;11.80;99.90;;;;;;5075109;28;20461;-79
2022/11/15 07:52:37;;;;;;;19.95;12.98;;;11.80;99.90;;;;;;5075504;28;20032;-79
2022/11/15 07:55:03;;;;;;;20.27;13.13;;;11.80;99.90;;;;;;5057080;28;20029;-78
2022/11/15 07:57:29;;;;;;;18.42;12.18;;;11.80;99.90;;;;;;5024281;28;20029;-78
2022/11/15 07:59:55;;;;;;;22.92;13.85;;;11.80;99.90;;;;;;5075360;28;20024;-79
2022/11/15 08:02:21;;;;;;;16.88;12.75;;;11.90;99.90;;;;;;5056967;28;20043;-78
2022/11/15 08:04:46;;;;;;;17.48;11.98;;;11.90;99.90;;;;;;5057439;28;20040;-78
2022/11/15 08:07:12;;;;;;;19.65;13.38;;;11.90;99.90;;;;;;5056926;28;20085;-79
2022/11/15 08:09:38;;;;;;;19.42;12.23;;;11.90;99.90;;;;;;5040073;28;20033;-78
2022/11/15 08:12:03;;;;;;;18.80;12.07;;;11.90;99.90;;;;;;5040797;28;20033;-78
2022/11/15 08:14:29;;;;;;;19.92;12.80;;;11.90;99.90;;;;;;5056746;28;20031;-78
2022/11/15 08:16:55;;;;;;;18.42;12.65;;;11.90;99.90;;;;;;5056663;28;20447;-78
2022/11/15 08:19:21;;;;;;;16.77;11.70;;;12.00;99.90;;;;;;5039839;28;20119;-78
2022/11/15 08:21:46;;;;;;;19.17;11.85;;;12.00;99.90;;;;;;5056457;28;20083;-78
2022/11/15 08:24:12;;;;;;;19.92;11.85;;;12.00;99.90;;;;;;5023472;28;20032;-78
2022/11/15 08:26:38;;;;;;;18.73;11.70;;;12.00;99.90;;;;;;5039927;28;20060;-78
2022/11/15 08:29:03;;;;;;;18.15;11.10;;;12.10;99.90;;;;;;5074612;28;20039;-78
2022/11/15 08:31:29;;;;;;;15.98;10.70;;;12.10;99.90;;;;;;5056703;28;20093;-78
2022/11/15 08:33:54;;;;;;;15.13;11.02;;;12.10;99.90;;;;;;5056291;28;20056;-78
2022/11/15 08:36:20;;;;;;;19.63;11.77;;;12.20;99.90;;;;;;5056488;28;20037;-79
2022/11/15 08:38:46;;;;;;;21.42;11.45;;;12.20;99.90;;;;;;5036089;28;20052;-78
2022/11/15 08:41:19;;;;;;;17.52;11.38;;;12.20;99.90;;;;;;5036169;28;20048;-78
2022/11/15 08:43:44;;;;;;;14.98;10.93;;;12.20;99.90;;;;;;5053093;28;20174;-78
2022/11/15 08:46:13;;;;;;;18.90;11.70;;;12.30;99.90;;;;;;5053279;28;20112;-79
2022/11/15 08:48:39;;;;;;;17.58;10.70;;;12.40;99.90;;;;;;5036217;28;20067;-79
2022/11/15 08:51:05;;;;;;;15.50;10.65;;;12.30;99.90;;;;;;5035475;28;20025;-78
2022/11/15 08:53:31;;;;;;;16.48;9.68;;;12.40;99.90;;;;;;5053203;28;20029;-78
2022/11/15 08:55:57;;;;;;;17.52;10.50;;;12.50;99.90;;;;;;5036131;28;20036;-79
2022/11/15 08:58:22;;;;;;;16.17;10.15;;;12.50;99.90;;;;;;5036073;28;20028;-79
2022/11/15 09:00:48;;;;;;;16.58;9.65;;;12.60;99.90;;;;;;5054579;28;20028;-78
2022/11/15 09:03:14;;;;;;;17.52;10.73;;;12.60;99.90;;;;;;5053812;28;20037;-79
2022/11/15 09:05:40;;;;;;;15.60;11.70;;;12.70;99.90;;;;;;5052612;28;20406;-77
2022/11/15 09:08:05;;;;;;;14.93;10.00;;;12.70;99.90;;;;;;5052682;28;20065;-79
2022/11/15 09:10:31;;;;;;;14.10;9.40;;;12.70;99.90;;;;;;5052913;28;20025;-78
2022/11/15 09:12:57;;;;;;;15.32;9.65;;;12.70;99.90;;;;;;5036284;28;20037;-80
2022/11/15 09:15:23;;;;;;;18.92;11.27;;;12.70;99.90;;;;;;5036089;28;20491;-79
2022/11/15 09:17:48;;;;;;;15.55;9.48;;;12.70;99.90;;;;;;5036152;28;20124;-79
2022/11/15 09:20:14;;;;;;;17.65;10.07;;;12.60;99.90;;;;;;5052369;28;20025;-78
2022/11/15 09:22:40;;;;;;;16.20;8.75;;;12.70;99.90;;;;;;5053470;28;20040;-78
2022/11/15 09:25:06;;;;;;;15.35;9.38;;;12.70;99.90;;;;;;5052617;28;20028;-78
2022/11/15 09:27:32;;;;;;;15.25;8.13;;;12.70;99.90;;;;;;5052283;28;20040;-78
2022/11/15 09:29:57;;;;;;;14.95;7.95;;;12.70;99.90;;;;;;5052677;28;20033;-79
2022/11/15 09:32:27;;;;;;;16.70;7.88;;;12.70;99.90;;;;;;5036313;28;20124;-78
2022/11/15 09:34:53;;;;;;;13.60;8.00;;;12.70;99.90;;;;;;5052095;28;20021;-78
2022/11/15 09:37:18;;;;;;;11.93;6.75;;;12.70;99.90;;;;;;5059764;28;20059;-77
2022/11/15 09:39:44;;;;;;;11.73;6.75;;;12.80;99.90;;;;;;5038846;28;20036;-78
2022/11/15 09:42:34;;;;;;;11.57;5.97;;;13.00;99.90;;;;;;5038799;28;20037;-78
2022/11/15 09:45:06;;;;;;;11.93;6.20;;;13.20;99.90;;;;;;5055177;28;20021;-78
2022/11/15 09:47:52;;;;;;;9.95;4.82;;;13.30;99.90;;;;;;5055408;28;20058;-79
2022/11/15 09:50:46;;;;;;;10.15;5.32;;;13.40;99.90;;;;;;5073280;28;20028;-79
2022/11/15 09:53:18;;;;;;;10.60;4.45;;;13.60;99.90;;;;;;5055145;28;20116;-80
2022/11/15 09:56:02;;;;;;;8.05;4.32;;;13.80;99.90;;;;;;5055148;28;20038;-79
2022/11/15 09:58:44;;;;;;;6.03;4.07;;;13.90;99.90;;;;;;5055180;28;20031;-79
2022/11/15 10:01:29;;;;;;;9.30;5.18;;;14.00;99.90;;;;;;5055151;28;20024;-79
2022/11/15 10:03:57;;;;;;;9.95;4.80;;;14.00;99.90;;;;;;5076053;28;20162;-78
2022/11/15 10:06:25;;;;;;;8.77;4.35;;;13.90;99.70;;;;;;5059347;28;20039;-82
2022/11/15 10:08:54;;;;;;;8.25;4.68;;;13.90;99.50;;;;;;5077068;28;20051;-78
2022/11/15 10:11:25;;;;;;;10.25;4.15;;;13.90;99.00;;;;;;5077282;28;20509;-81
2022/11/15 10:13:54;;;;;;;5.28;3.20;;;13.90;99.00;;;;;;5076847;28;20024;-81
2022/11/15 10:16:37;;;;;;;6.00;3.22;;;14.10;99.40;;;;;;5058819;28;20384;-82
2022/11/15 10:19:47;;;;;;;7.40;3.08;;;14.20;98.30;;;;;;5059081;28;20162;-81
2022/11/15 10:22:37;;;;;;;6.88;2.97;;;14.20;97.10;;;;;;5058788;28;20025;-80
2022/11/15 10:25:08;;;;;;;5.85;3.33;;;14.10;96.90;;;;;;5077332;28;20449;-81
2022/11/15 10:27:35;;;;;;;9.35;3.47;;;14.00;96.40;;;;;;5077117;28;20032;-80
2022/11/15 10:30:03;;;;;;;6.60;3.17;;;14.00;96.20;;;;;;5042231;28;20487;-80
2022/11/15 10:32:34;;;;;;;5.00;2.60;;;14.00;96.40;;;;;;5058672;28;20020;-81
2022/11/15 10:35:15;;;;;;;6.47;2.05;;;14.00;96.90;;;;;;5059614;28;20028;-80
2022/11/15 10:37:40;;;;;;;5.47;2.20;;;14.20;97.00;;;;;;5076427;28;20052;-81
2022/11/15 10:40:20;;;;;;;3.85;1.50;;;14.60;96.40;;;;;;5076509;28;20043;-80
2022/11/15 10:42:46;;;;;;;4.35;1.40;;;14.80;96.10;;;;;;5058416;28;20020;-82
2022/11/15 10:45:30;;;;;;;2.75;1.00;;;15.10;95.80;;;;;;5041811;28;20081;-80
2022/11/15 10:48:14;;;;;;;3.67;1.10;;;15.70;96.30;;;;;;5058174;28;20468;-81
2022/11/15 10:50:47;;;;;;;3.28;1.20;;;16.20;95.20;;;;;;5076254;28;20017;-80
2022/11/15 10:53:33;;;;;;;4.03;1.20;;;16.80;94.10;;;;;;5058118;28;20468;-80
2022/11/15 10:56:03;;;;;;;3.10;1.02;;;17.10;92.70;;;;;;5076770;28;20048;-80
2022/11/15 10:58:29;;;;;;;3.30;0.98;;;17.20;87.80;;;;;;5076205;28;20024;-80
2022/11/15 11:00:55;;;;;;;3.47;0.80;;;17.20;86.30;;;;;;5075993;28;20031;-83
2022/11/15 11:03:28;;;;;;;3.85;0.98;;;17.20;83.80;;;;;;5058034;28;20081;-80
2022/11/15 11:06:30;;;;;;;5.30;0.98;;;17.00;82.50;;;;;;5057867;28;20016;-80
2022/11/15 11:09:00;;;;;;;3.65;0.90;;;16.90;82.40;;;;;;4978043;28;20565;-79
2022/11/15 11:11:46;;;;;;;2.17;0.80;;;16.90;81.20;;;;;;5044069;28;20041;-80
2022/11/15 11:14:30;;;;;;;3.22;0.90;;;17.20;79.40;;;;;;5056976;28;20036;-80
2022/11/15 11:17:44;;;;;;;2.40;0.70;;;17.30;79.00;;;;;;5057747;28;20032;-80
2022/11/15 11:20:19;;;;;;;3.70;0.90;;;17.50;77.50;;;;;;5050417;28;20055;-80
2022/11/15 11:23:09;;;;;;;4.05;0.60;;;17.70;76.70;;;;;;5075647;28;20017;-80
2022/11/15 11:26:16;;;;;;;3.40;0.95;;;17.80;75.30;;;;;;5057670;28;20021;-80
2022/11/15 11:28:50;;;;;;;6.80;0.98;;;18.00;74.10;;;;;;5044733;28;20033;-80
2022/11/15 11:31:35;;;;;;;2.47;0.60;;;18.20;72.60;;;;;;5057559;28;20115;-80
2022/11/15 11:34:39;;;;;;;3.10;0.60;;;18.40;71.60;;;;;;5057400;28;20472;-80
2022/11/15 11:37:32;;;;;;;2.63;0.63;;;18.70;71.00;;;;;;5075802;28;20036;-80
2022/11/15 11:40:22;;;;;;;1.55;0.50;;;19.20;69.30;;;;;;5075611;28;20028;-81
2022/11/15 11:43:19;;;;;;;3.45;0.57;;;19.40;66.50;;;;;;5075338;28;20382;-81
2022/11/15 11:45:52;;;;;;;3.53;0.80;;;19.50;64.30;;;;;;5075499;28;20091;-82
2022/11/15 11:48:43;;;;;;;2.28;0.40;;;19.80;63.00;;;;;;5075218;28;20060;-80
2022/11/15 11:51:33;;;;;;;5.28;0.65;;;20.00;62.20;;;;;;5075413;28;20044;-79
2022/11/15 11:54:18;;;;;;;4.25;0.40;;;20.40;61.10;;;;;;5075116;28;20099;-81
2022/11/15 11:56:45;;;;;;;4.50;0.70;;;20.70;59.50;;;;;;5075520;28;20448;-80
2022/11/15 11:59:50;;;;;;;4.38;0.60;;;20.90;59.20;;;;;;5040892;28;20035;-79
2022/11/15 12:02:35;;;;;;;2.90;0.70;;;21.00;58.20;;;;;;5075111;28;20032;-80
2022/11/15 12:05:15;;;;;;;4.57;0.60;;;21.10;58.30;;;;;;5057325;28;20031;-80
2022/11/15 12:07:43;;;;;;;3.42;0.55;;;21.20;57.80;;;;;;5074784;28;20036;-79
2022/11/15 12:10:25;;;;;;;2.78;0.60;;;21.30;57.40;;;;;;5075092;28;20494;-80
2022/11/15 12:13:06;;;;;;;2.20;0.70;;;21.30;56.50;;;;;;5057015;28;20094;-79
2022/11/15 12:16:02;;;;;;;3.30;0.60;;;21.40;56.50;;;;;;5075175;28;20017;-81
2022/11/15 12:18:28;;;;;;;3.67;0.75;;;21.50;56.40;;;;;;5066214;28;20471;-79
2022/11/15 12:21:03;;;;;;;2.53;0.40;;;21.50;56.10;;;;;;5056714;28;20067;-82
2022/11/15 12:23:34;;;;;;;2.22;0.40;;;21.50;55.10;;;;;;5056721;28;20056;-78
2022/11/15 12:26:12;;;;;;;3.72;0.55;;;21.40;54.50;;;;;;5074514;28;20029;-77
2022/11/15 12:28:41;;;;;;;2.83;0.50;;;21.20;53.90;;;;;;5056780;28;20078;-75
2022/11/15 12:31:39;;;;;;;2.92;0.65;;;21.00;53.60;;;;;;5074645;28;20016;-78
2022/11/15 12:34:21;;;;;;;1.85;0.40;;;20.80;53.90;;;;;;5056256;28;20045;-76
2022/11/15 12:36:49;;;;;;;3.83;0.50;;;20.60;54.50;;;;;;5056288;28;20023;-77
2022/11/15 12:39:16;;;;;;;2.20;0.40;;;20.70;55.10;;;;;;5056470;28;20032;-76
2022/11/15 12:41:55;;;;;;;2.85;0.50;;;20.80;55.20;;;;;;5056618;28;20024;-76
2022/11/15 12:44:37;;;;;;;2.60;0.60;;;20.80;55.20;;;;;;5056389;28;20028;-76
2022/11/15 12:47:27;;;;;;;3.03;0.50;;;20.80;54.90;;;;;;5056224;28;20473;-79
2022/11/15 12:49:53;;;;;;;2.58;0.40;;;20.90;54.90;;;;;;5056044;28;20043;-77
2022/11/15 12:52:19;;;;;;;1.85;0.52;;;21.00;55.00;;;;;;5056547;28;20097;-77
2022/11/15 12:54:54;;;;;;;1.40;0.47;;;21.10;54.80;;;;;;5056100;28;20056;-77
2022/11/15 12:57:20;;;;;;;3.00;0.50;;;21.20;54.60;;;;;;5073578;28;20048;-77
2022/11/15 13:00:29;;;;;;;3.42;0.43;;;21.30;54.30;;;;;;5073961;28;20541;-77
2022/11/15 13:03:18;;;;;;;6.28;0.50;;;21.20;53.80;;;;;;5056316;28;20048;-78
2022/11/15 13:05:43;;;;;;;3.30;0.40;;;21.10;53.20;;;;;;5074259;28;20059;-75
2022/11/15 13:08:29;;;;;;;2.75;0.45;;;20.90;53.50;;;;;;5073659;28;20060;-77
2022/11/15 13:10:55;;;;;;;3.80;0.43;;;20.80;53.70;;;;;;5055804;28;20463;-77
2022/11/15 13:13:42;;;;;;;2.20;0.52;;;20.80;54.00;;;;;;5074037;28;20024;-77